createdAt,value
2023-02-19T00:01:53.362Z,9.90
2023-02-19T00:04:24.588Z,9.90
2023-02-19T00:06:51.810Z,9.90
2023-02-19T00:09:20.157Z,9.80
2023-02-19T00:11:49.348Z,9.90
2023-02-19T00:14:19.662Z,9.90
2023-02-19T00:16:47.497Z,9.90
2023-02-19T00:19:17.454Z,9.90
2023-02-19T00:21:44.740Z,9.80
2023-02-19T00:24:13.912Z,9.80
2023-02-19T00:26:42.488Z,9.80
2023-02-19T00:29:13.861Z,9.80
2023-02-19T00:31:41.027Z,9.80
2023-02-19T00:34:10.006Z,9.80
2023-02-19T00:36:39.426Z,9.90
2023-02-19T00:39:08.320Z,9.70
2023-02-19T00:41:35.493Z,9.80
2023-02-19T00:44:05.470Z,9.80
2023-02-19T00:46:39.648Z,9.80
2023-02-19T00:49:08.366Z,9.80
2023-02-19T00:51:41.134Z,9.80
2023-02-19T00:54:11.300Z,9.80
2023-02-19T00:56:41.861Z,9.70
2023-02-19T00:59:09.335Z,9.80
2023-02-19T01:01:36.388Z,9.80
2023-02-19T01:04:06.427Z,9.80
2023-02-19T01:06:35.060Z,9.80
2023-02-19T01:09:02.447Z,9.80
2023-02-19T01:11:32.355Z,9.80
2023-02-19T01:14:03.589Z,9.70
2023-02-19T01:16:31.260Z,9.80
2023-02-19T01:18:59.321Z,9.70
2023-02-19T01:21:28.282Z,9.80
2023-02-19T01:23:58.216Z,9.80
2023-02-19T01:26:30.330Z,9.80
2023-02-19T01:28:58.434Z,9.70
2023-02-19T01:31:27.480Z,9.70
2023-02-19T01:33:57.765Z,9.70
2023-02-19T01:36:25.117Z,9.70
2023-02-19T01:38:51.825Z,9.60
2023-02-19T01:41:24.367Z,9.60
2023-02-19T01:44:01.476Z,9.60
2023-02-19T01:46:33.244Z,9.60
2023-02-19T01:49:05.638Z,9.60
2023-02-19T01:51:34.304Z,9.60
2023-02-19T01:54:04.267Z,9.60
2023-02-19T01:56:32.523Z,9.60
2023-02-19T01:59:00.148Z,9.60
2023-02-19T02:01:26.877Z,9.60
2023-02-19T02:03:53.969Z,9.60
2023-02-19T02:06:31.340Z,9.50
2023-02-19T02:09:17.622Z,9.50
2023-02-19T02:11:48.256Z,9.50
2023-02-19T02:14:17.368Z,9.50
2023-02-19T02:17:02.491Z,9.50
2023-02-19T02:20:00.143Z,9.50
2023-02-19T02:22:40.982Z,9.50
2023-02-19T02:25:25.704Z,9.50
2023-02-19T02:28:12.107Z,9.50
2023-02-19T02:30:55.613Z,9.50
2023-02-19T02:33:25.273Z,9.40
2023-02-19T02:35:59.848Z,9.50
2023-02-19T02:38:29.858Z,9.40
2023-02-19T02:40:57.644Z,9.40
2023-02-19T02:43:24.885Z,9.40
2023-02-19T02:45:51.810Z,9.40
2023-02-19T02:48:41.696Z,9.40
2023-02-19T02:51:33.414Z,9.40
2023-02-19T02:54:38.891Z,9.40
2023-02-19T02:57:09.311Z,9.30
2023-02-19T02:59:38.996Z,9.30
2023-02-19T03:02:10.863Z,9.30
2023-02-19T03:05:06.372Z,9.30
2023-02-19T03:08:09.945Z,9.20
2023-02-19T03:10:46.448Z,9.20
2023-02-19T03:13:39.128Z,9.20
2023-02-19T03:16:35.583Z,9.20
2023-02-19T03:19:20.558Z,9.20
2023-02-19T03:22:10.800Z,9.20
2023-02-19T03:25:07.954Z,9.20
2023-02-19T03:27:37.350Z,9.20
2023-02-19T03:30:10.885Z,9.20
2023-02-19T03:32:55.382Z,9.20
2023-02-19T03:35:30.147Z,9.20
2023-02-19T03:38:11.061Z,9.10
2023-02-19T03:40:51.162Z,9.10
2023-02-19T03:44:00.373Z,9.10
2023-02-19T03:46:32.844Z,9.00
2023-02-19T03:49:05.965Z,9.00
2023-02-19T03:51:45.915Z,9.00
2023-02-19T03:54:27.494Z,9.00
2023-02-19T03:57:05.644Z,9.00
2023-02-19T03:59:47.687Z,8.90
2023-02-19T04:02:20.115Z,8.90
2023-02-19T04:04:56.176Z,8.90
2023-02-19T04:07:23.752Z,8.90
2023-02-19T04:09:51.439Z,8.90
2023-02-19T04:12:20.339Z,8.80
2023-02-19T04:15:07.579Z,8.90
2023-02-19T04:17:48.350Z,8.90
2023-02-19T04:20:17.136Z,8.80
2023-02-19T04:22:44.666Z,8.90
2023-02-19T04:25:11.458Z,8.90
2023-02-19T04:27:41.101Z,8.90
2023-02-19T04:30:11.202Z,8.80
2023-02-19T04:32:37.898Z,8.80
2023-02-19T04:35:05.000Z,8.80
2023-02-19T04:37:31.706Z,8.90
2023-02-19T04:39:58.407Z,8.80
2023-02-19T04:42:25.035Z,8.90
2023-02-19T04:44:51.700Z,8.80
2023-02-19T04:47:18.301Z,8.80
2023-02-19T04:49:45.534Z,8.80
2023-02-19T04:52:12.692Z,8.80
2023-02-19T04:54:39.415Z,8.80
2023-02-19T04:57:06.105Z,8.80
2023-02-19T04:59:32.938Z,8.80
2023-02-19T05:01:59.722Z,8.80
2023-02-19T05:04:26.684Z,8.80
2023-02-19T05:06:53.331Z,8.80
2023-02-19T05:09:20.078Z,8.80
2023-02-19T05:11:46.832Z,8.80
2023-02-19T05:14:13.574Z,8.70
2023-02-19T05:16:40.298Z,8.70
2023-02-19T05:19:07.036Z,8.70
2023-02-19T05:21:33.901Z,8.80
2023-02-19T05:24:00.582Z,8.70
2023-02-19T05:26:27.292Z,8.70
2023-02-19T05:28:54.038Z,8.70
2023-02-19T05:31:21.328Z,8.70
2023-02-19T05:33:51.221Z,8.70
2023-02-19T05:36:19.743Z,8.60
2023-02-19T05:38:47.208Z,8.70
2023-02-19T05:41:19.642Z,8.60
2023-02-19T05:43:48.679Z,8.70
2023-02-19T05:46:17.849Z,8.60
2023-02-19T05:48:44.688Z,8.60
2023-02-19T05:51:13.624Z,8.60
2023-02-19T05:53:41.072Z,8.70
2023-02-19T05:56:32.808Z,8.70
2023-02-19T05:59:01.605Z,8.60
2023-02-19T06:01:29.644Z,8.60
2023-02-19T06:03:57.621Z,8.60
2023-02-19T06:06:26.267Z,8.60
2023-02-19T06:08:53.179Z,8.60
2023-02-19T06:11:20.189Z,8.60
2023-02-19T06:13:47.028Z,8.60
2023-02-19T06:16:14.079Z,8.60
2023-02-19T06:18:41.370Z,8.50
2023-02-19T06:21:10.948Z,8.60
2023-02-19T06:23:38.812Z,8.50
2023-02-19T06:26:25.790Z,8.50
2023-02-19T06:28:54.197Z,8.50
2023-02-19T06:31:22.517Z,8.50
2023-02-19T06:33:50.715Z,8.50
2023-02-19T06:36:20.469Z,8.50
2023-02-19T06:38:47.844Z,8.50
2023-02-19T06:41:14.992Z,8.50
2023-02-19T06:43:42.305Z,8.50
2023-02-19T06:46:11.508Z,8.50
2023-02-19T06:48:40.071Z,8.40
2023-02-19T06:51:06.969Z,8.50
2023-02-19T06:53:33.822Z,8.50
2023-02-19T06:56:27.614Z,8.40
2023-02-19T06:58:56.655Z,8.40
2023-02-19T07:01:24.374Z,8.40
2023-02-19T07:03:55.556Z,8.40
2023-02-19T07:06:24.287Z,8.40
2023-02-19T07:08:51.969Z,8.40
2023-02-19T07:11:18.742Z,8.40
2023-02-19T07:13:45.820Z,8.40
2023-02-19T07:16:13.138Z,8.40
2023-02-19T07:18:40.720Z,8.60
2023-02-19T07:21:10.567Z,8.40
2023-02-19T07:23:37.671Z,8.40
2023-02-19T07:26:05.023Z,8.40
2023-02-19T07:28:31.750Z,8.30
2023-02-19T07:31:03.070Z,8.40
2023-02-19T07:33:30.584Z,8.40
2023-02-19T07:35:57.548Z,8.40
2023-02-19T07:38:25.852Z,8.40
2023-02-19T07:40:59.530Z,8.30
2023-02-19T07:43:28.785Z,8.40
2023-02-19T07:45:55.696Z,8.30
2023-02-19T07:48:22.772Z,8.30
2023-02-19T07:50:57.225Z,8.50
2023-02-19T07:53:24.849Z,8.30
2023-02-19T07:55:51.588Z,8.30
2023-02-19T07:58:18.374Z,8.40
2023-02-19T08:00:45.734Z,8.30
2023-02-19T08:03:12.675Z,8.20
2023-02-19T08:05:41.672Z,8.20
2023-02-19T08:08:10.599Z,8.20
2023-02-19T08:10:55.882Z,8.30
2023-02-19T08:13:23.467Z,8.20
2023-02-19T08:16:17.334Z,8.20
2023-02-19T08:18:48.242Z,8.30
2023-02-19T08:21:18.195Z,8.30
2023-02-19T08:23:46.245Z,8.30
2023-02-19T08:26:13.123Z,8.40
2023-02-19T08:28:39.895Z,8.30
2023-02-19T08:31:08.377Z,8.30
2023-02-19T08:33:35.769Z,8.20
2023-02-19T08:36:05.524Z,8.20
2023-02-19T08:38:35.817Z,8.20
2023-02-19T08:41:11.387Z,8.20
2023-02-19T08:43:39.106Z,8.20
2023-02-19T08:46:10.280Z,8.10
2023-02-19T08:48:37.716Z,8.20
2023-02-19T08:51:08.277Z,8.20
2023-02-19T08:53:36.992Z,8.40
2023-02-19T08:56:13.043Z,8.30
2023-02-19T08:58:40.167Z,8.30
2023-02-19T09:01:12.303Z,8.30
2023-02-19T09:03:39.585Z,8.30
2023-02-19T09:06:06.542Z,8.30
2023-02-19T09:08:33.232Z,8.30
2023-02-19T09:11:02.161Z,8.40
2023-02-19T09:13:28.896Z,8.40
2023-02-19T09:15:57.102Z,8.50
2023-02-19T09:18:24.905Z,8.50
2023-02-19T09:20:54.493Z,8.60
2023-02-19T09:23:23.783Z,8.60
2023-02-19T09:25:58.594Z,8.60
2023-02-19T09:28:25.773Z,8.60
2023-02-19T09:30:52.513Z,8.60
2023-02-19T09:33:19.507Z,8.60
2023-02-19T09:35:46.438Z,8.60
2023-02-19T09:38:13.508Z,8.60
2023-02-19T09:40:40.428Z,8.70
2023-02-19T09:43:18.050Z,8.70
2023-02-19T09:45:44.821Z,8.60
2023-02-19T09:48:12.620Z,8.60
2023-02-19T09:50:49.700Z,8.60
2023-02-19T09:53:25.009Z,8.60
2023-02-19T09:55:53.222Z,8.60
2023-02-19T09:58:48.111Z,8.60
2023-02-19T10:01:15.269Z,8.60
2023-02-19T10:03:46.969Z,8.60
2023-02-19T10:06:21.848Z,8.60
2023-02-19T10:08:51.319Z,8.60
2023-02-19T10:11:18.997Z,8.60
2023-02-19T10:13:55.792Z,8.50
2023-02-19T10:16:28.315Z,8.50
2023-02-19T10:18:56.390Z,8.50
2023-02-19T10:21:26.240Z,8.50
2023-02-19T10:23:59.780Z,8.50
2023-02-19T10:26:27.514Z,8.50
2023-02-19T10:28:55.502Z,8.50
2023-02-19T10:31:24.875Z,8.50
2023-02-19T10:33:54.128Z,8.50
2023-02-19T10:36:42.566Z,8.50
2023-02-19T10:39:30.631Z,8.60
2023-02-19T10:41:58.670Z,8.60
2023-02-19T10:44:31.182Z,8.60
2023-02-19T10:46:59.858Z,8.60
2023-02-19T10:49:38.087Z,8.70
2023-02-19T10:52:25.516Z,8.70
2023-02-19T10:54:56.022Z,8.70
2023-02-19T10:57:34.111Z,8.70
2023-02-19T11:00:07.940Z,8.80
2023-02-19T11:02:34.618Z,8.80
2023-02-19T11:05:12.085Z,8.80
2023-02-19T11:07:51.865Z,8.90
2023-02-19T11:10:30.561Z,8.90
2023-02-19T11:13:01.427Z,8.90
2023-02-19T11:15:36.380Z,9.00
2023-02-19T11:18:14.859Z,9.00
2023-02-19T11:21:03.201Z,9.10
2023-02-19T11:23:46.012Z,9.10
2023-02-19T11:26:25.136Z,9.20
2023-02-19T11:29:11.849Z,9.20
2023-02-19T11:31:38.607Z,9.10
2023-02-19T11:34:14.571Z,9.10
2023-02-19T11:36:42.677Z,9.10
2023-02-19T11:39:15.489Z,9.10
2023-02-19T11:41:50.786Z,9.10
2023-02-19T11:44:34.149Z,9.10
2023-02-19T11:47:33.158Z,9.10
2023-02-19T11:50:24.991Z,9.10
2023-02-19T11:52:54.635Z,9.20
2023-02-19T11:55:56.682Z,9.20
2023-02-19T11:58:35.526Z,9.20
2023-02-19T12:01:11.293Z,9.20
2023-02-19T12:03:57.750Z,9.20
2023-02-19T12:06:40.220Z,9.20
2023-02-19T12:09:12.907Z,9.10
2023-02-19T12:11:53.572Z,9.20
2023-02-19T12:14:36.639Z,9.10
2023-02-19T12:18:02.924Z,9.10
2023-02-19T12:20:48.369Z,9.10
2023-02-19T12:23:40.915Z,9.10
2023-02-19T12:26:27.337Z,9.20
2023-02-19T12:29:25.067Z,9.20
2023-02-19T12:32:32.442Z,9.30
2023-02-19T12:35:04.538Z,9.30
2023-02-19T12:37:43.746Z,9.40
2023-02-19T12:40:18.721Z,9.40
2023-02-19T12:43:24.462Z,9.40
2023-02-19T12:46:10.362Z,9.50
2023-02-19T12:48:40.405Z,9.60
2023-02-19T12:51:26.409Z,9.70
2023-02-19T12:54:01.435Z,9.70
2023-02-19T12:56:39.611Z,9.80
2023-02-19T12:59:23.015Z,9.80
2023-02-19T13:01:57.186Z,9.90
2023-02-19T13:04:24.469Z,10.00
2023-02-19T13:07:05.324Z,10.00
2023-02-19T13:09:43.279Z,10.00
2023-02-19T13:12:15.401Z,10.10
2023-02-19T13:14:49.561Z,10.20
2023-02-19T13:17:34.817Z,10.30
2023-02-19T13:20:27.988Z,10.30
2023-02-19T13:23:46.826Z,10.30
2023-02-19T13:26:38.627Z,10.30
2023-02-19T13:29:20.654Z,10.10
2023-02-19T13:32:12.770Z,10.10
2023-02-19T13:34:40.457Z,10.00
2023-02-19T13:37:08.140Z,10.10
2023-02-19T13:39:45.543Z,10.10
2023-02-19T13:42:30.576Z,10.10
2023-02-19T13:44:58.838Z,10.10
2023-02-19T13:47:47.018Z,10.10
2023-02-19T13:50:29.149Z,10.10
2023-02-19T13:52:57.690Z,10.00
2023-02-19T13:55:43.572Z,9.90
2023-02-19T13:59:02.149Z,9.90
2023-02-19T14:01:52.042Z,9.80
2023-02-19T14:04:41.640Z,9.80
2023-02-19T14:07:08.460Z,9.70
2023-02-19T14:09:41.191Z,9.70
2023-02-19T14:12:08.027Z,9.70
2023-02-19T14:14:54.601Z,9.70
2023-02-19T14:17:36.563Z,9.70
2023-02-19T14:20:09.148Z,9.80
2023-02-19T14:23:02.111Z,9.90
2023-02-19T14:25:35.459Z,9.80
2023-02-19T14:28:05.210Z,9.70
2023-02-19T14:30:34.746Z,9.80
2023-02-19T14:33:10.562Z,9.70
2023-02-19T14:35:43.096Z,9.80
2023-02-19T14:38:34.810Z,9.80
2023-02-19T14:41:01.935Z,9.70
2023-02-19T14:43:30.803Z,9.60
2023-02-19T14:46:01.277Z,9.60
2023-02-19T14:48:31.768Z,9.60
2023-02-19T14:51:04.317Z,9.70
2023-02-19T14:53:36.582Z,9.60
2023-02-19T14:56:04.344Z,9.60
2023-02-19T14:58:33.333Z,9.60
2023-02-19T15:01:00.559Z,9.60
2023-02-19T15:03:40.094Z,9.50
2023-02-19T15:06:19.595Z,9.60
2023-02-19T15:08:55.034Z,9.50
2023-02-19T15:11:24.171Z,9.50
2023-02-19T15:13:56.025Z,9.50
2023-02-19T15:16:26.486Z,9.50
2023-02-19T15:18:55.146Z,9.40
2023-02-19T15:21:28.025Z,9.40
2023-02-19T15:24:03.829Z,9.40
2023-02-19T15:26:40.549Z,9.30
2023-02-19T15:29:16.217Z,9.40
2023-02-19T15:31:48.479Z,9.30
2023-02-19T15:34:21.104Z,9.30
2023-02-19T15:36:50.188Z,9.30
2023-02-19T15:39:25.315Z,9.30
2023-02-19T15:42:00.917Z,9.30
2023-02-19T15:44:41.695Z,9.20
2023-02-19T15:47:25.525Z,9.20
2023-02-19T15:50:12.874Z,9.30
2023-02-19T15:52:51.803Z,9.30
2023-02-19T15:55:27.021Z,9.10
2023-02-19T15:58:09.990Z,9.20
2023-02-19T16:00:46.950Z,9.20
2023-02-19T16:03:19.813Z,9.20
2023-02-19T16:05:57.556Z,9.20
2023-02-19T16:08:33.468Z,9.20
2023-02-19T16:11:05.107Z,9.10
2023-02-19T16:13:35.255Z,9.10
2023-02-19T16:16:40.122Z,9.20
2023-02-19T16:19:12.981Z,9.00
2023-02-19T16:21:46.368Z,9.00
2023-02-19T16:24:18.208Z,9.10
2023-02-19T16:26:49.847Z,8.90
2023-02-19T16:29:24.968Z,8.90
2023-02-19T16:32:13.430Z,8.90
2023-02-19T16:34:58.048Z,8.90
2023-02-19T16:37:41.742Z,8.80
2023-02-19T16:40:16.869Z,8.80
2023-02-19T16:42:59.442Z,8.80
2023-02-19T16:45:35.348Z,8.90
2023-02-19T16:48:19.191Z,8.80
2023-02-19T16:50:51.582Z,8.80
2023-02-19T16:53:37.954Z,8.70
2023-02-19T16:56:09.843Z,8.70
2023-02-19T16:58:40.064Z,8.60
2023-02-19T17:01:13.292Z,8.60
2023-02-19T17:03:44.679Z,8.50
2023-02-19T17:06:31.755Z,8.50
2023-02-19T17:09:17.432Z,8.50
2023-02-19T17:11:44.625Z,8.50
2023-02-19T17:14:14.358Z,8.50
2023-02-19T17:16:41.198Z,8.50
2023-02-19T17:19:19.990Z,8.50
2023-02-19T17:21:51.769Z,8.40
2023-02-19T17:24:22.056Z,8.40
2023-02-19T17:26:51.227Z,8.40
2023-02-19T17:29:20.048Z,8.30
2023-02-19T17:31:47.382Z,8.30
2023-02-19T17:34:14.658Z,8.30
2023-02-19T17:36:45.410Z,8.30
2023-02-19T17:39:16.841Z,8.30
2023-02-19T17:41:48.340Z,8.30
2023-02-19T17:44:15.826Z,8.30
2023-02-19T17:46:43.361Z,8.30
2023-02-19T17:49:12.476Z,8.30
2023-02-19T17:51:52.430Z,8.30
2023-02-19T17:54:22.318Z,8.20
2023-02-19T17:56:51.205Z,8.20
2023-02-19T17:59:18.439Z,8.30
2023-02-19T18:04:58.498Z,8.20
2023-02-19T18:07:51.316Z,8.10
2023-02-19T18:10:26.358Z,8.20
2023-02-19T18:12:53.476Z,8.20
2023-02-19T18:15:46.117Z,8.20
2023-02-19T18:18:23.754Z,8.20
2023-02-19T18:21:23.956Z,8.10
2023-02-19T18:24:40.058Z,8.00
2023-02-19T18:27:18.176Z,8.10
2023-02-19T18:30:18.958Z,8.10
2023-02-19T18:33:03.206Z,8.10
2023-02-19T18:35:46.703Z,8.00
2023-02-19T18:38:13.973Z,8.10
2023-02-19T18:40:40.910Z,8.00
2023-02-19T18:43:08.145Z,8.00
2023-02-19T18:45:37.147Z,8.00
2023-02-19T18:48:05.293Z,7.90
2023-02-19T18:50:33.439Z,7.90
2023-02-19T18:53:00.325Z,7.90
2023-02-19T18:55:27.267Z,7.90
2023-02-19T18:57:54.111Z,7.90
2023-02-19T19:00:26.630Z,7.90
2023-02-19T19:02:59.958Z,7.90
2023-02-19T19:05:27.213Z,7.90
2023-02-19T19:07:56.536Z,7.90
2023-02-19T19:10:23.772Z,7.90
2023-02-19T19:12:50.717Z,7.80
2023-02-19T19:15:18.729Z,7.90
2023-02-19T19:17:47.289Z,7.90
2023-02-19T19:20:19.727Z,7.90
2023-02-19T19:22:49.974Z,7.90
2023-02-19T19:25:17.176Z,7.90
2023-02-19T19:27:46.494Z,7.90
2023-02-19T19:30:30.773Z,7.90
2023-02-19T19:32:58.012Z,7.90
2023-02-19T19:35:32.022Z,7.80
2023-02-19T19:37:58.722Z,7.80
2023-02-19T19:40:25.477Z,7.80
2023-02-19T19:42:52.846Z,7.80
2023-02-19T19:45:20.047Z,7.80
2023-02-19T19:47:48.654Z,7.80
2023-02-19T19:50:18.239Z,7.80
2023-02-19T19:52:45.014Z,7.80
2023-02-19T19:55:11.684Z,7.70
2023-02-19T19:57:40.750Z,7.70
2023-02-19T20:00:09.187Z,7.70
2023-02-19T20:02:35.986Z,7.70
2023-02-19T20:05:02.820Z,7.70
2023-02-19T20:07:29.614Z,7.70
2023-02-19T20:09:56.333Z,7.70
2023-02-19T20:12:23.057Z,7.70
2023-02-19T20:14:49.787Z,7.70
2023-02-19T20:17:16.522Z,7.70
2023-02-19T20:19:43.399Z,7.70
2023-02-19T20:22:10.218Z,7.70
2023-02-19T20:24:36.981Z,7.70
2023-02-19T20:27:04.646Z,7.60
2023-02-19T20:29:33.271Z,7.70
2023-02-19T20:32:02.461Z,7.60
2023-02-19T20:34:30.024Z,7.60
2023-02-19T20:36:58.201Z,7.60
2023-02-19T20:39:28.901Z,7.70
2023-02-19T20:41:56.333Z,7.70
2023-02-19T20:44:23.194Z,7.60
2023-02-19T20:46:51.993Z,7.60
2023-02-19T20:49:21.239Z,7.60
2023-02-19T20:51:53.209Z,7.60
2023-02-19T20:54:22.685Z,7.60
2023-02-19T20:56:52.934Z,7.60
2023-02-19T20:59:22.187Z,7.60
2023-02-19T21:01:49.124Z,7.60
2023-02-19T21:04:18.238Z,7.60
2023-02-19T21:06:45.597Z,7.60
2023-02-19T21:09:12.659Z,7.60
2023-02-19T21:11:39.686Z,7.60
2023-02-19T21:14:06.401Z,7.60
2023-02-19T21:16:33.351Z,7.50
2023-02-19T21:19:01.114Z,7.50
2023-02-19T21:21:30.310Z,7.60
2023-02-19T21:23:59.149Z,7.60
2023-02-19T21:26:33.518Z,7.50
2023-02-19T21:29:00.369Z,7.50
2023-02-19T21:31:39.626Z,7.50
2023-02-19T21:34:07.883Z,7.50
2023-02-19T21:36:34.740Z,7.40
2023-02-19T21:39:02.268Z,7.40
2023-02-19T21:41:29.363Z,7.40
2023-02-19T21:43:56.657Z,7.40
2023-02-19T21:46:24.086Z,7.40
2023-02-19T21:48:55.886Z,7.40
2023-02-19T21:51:30.946Z,7.40
2023-02-19T21:53:58.339Z,7.40
2023-02-19T21:56:27.402Z,7.40
2023-02-19T21:58:54.256Z,7.40
2023-02-19T22:01:26.648Z,7.30
2023-02-19T22:03:53.599Z,7.40
2023-02-19T22:06:24.181Z,7.40
2023-02-19T22:08:51.199Z,7.30
2023-02-19T22:11:18.013Z,7.40
2023-02-19T22:13:44.711Z,7.30
2023-02-19T22:16:11.896Z,7.30
2023-02-19T22:18:38.815Z,7.30
2023-02-19T22:21:06.650Z,7.30
2023-02-19T22:23:33.467Z,7.30
2023-02-19T22:26:00.279Z,7.30
2023-02-19T22:28:26.985Z,7.30
2023-02-19T22:30:53.653Z,7.30
2023-02-19T22:33:20.421Z,7.30
2023-02-19T22:35:47.083Z,7.30
2023-02-19T22:38:13.851Z,7.30
2023-02-19T22:40:40.624Z,7.30
2023-02-19T22:43:07.389Z,7.20
2023-02-19T22:45:34.124Z,7.30
2023-02-19T22:48:00.875Z,7.20
2023-02-19T22:50:27.568Z,7.20
2023-02-19T22:52:55.093Z,7.20
2023-02-19T22:55:22.058Z,7.20
2023-02-19T22:57:48.927Z,7.10
2023-02-19T23:00:21.199Z,7.20
2023-02-19T23:02:48.801Z,7.10
2023-02-19T23:05:16.633Z,7.10
2023-02-19T23:07:44.588Z,7.10
2023-02-19T23:10:12.736Z,7.20
2023-02-19T23:12:41.069Z,7.10
2023-02-19T23:15:09.117Z,7.10
2023-02-19T23:17:36.087Z,7.10
2023-02-19T23:20:03.301Z,7.10
2023-02-19T23:22:30.167Z,7.10
2023-02-19T23:24:57.130Z,7.10
2023-02-19T23:27:24.304Z,7.10
2023-02-19T23:29:51.073Z,7.10
2023-02-19T23:32:20.870Z,7.10
2023-02-19T23:34:48.273Z,7.10
2023-02-19T23:37:15.423Z,7.10
2023-02-19T23:39:42.287Z,7.10
2023-02-19T23:42:15.706Z,7.10
2023-02-19T23:44:45.636Z,7.10
2023-02-19T23:47:12.486Z,7.10
2023-02-19T23:49:39.203Z,7.10
2023-02-19T23:52:05.937Z,7.10
2023-02-19T23:54:32.577Z,7.10
2023-02-19T23:56:59.322Z,7.10
2023-02-19T23:59:26.248Z,7.10
